Terminal Aerodrome Forecast
Issued by NWS Huntsville, AL

Home | Current Version | Previous Version | Text Only | Print | Product List | Glossary On
Versions: 1 2 3 4 5 6 7 8 9 10 11 12 13 14 15 16 17
000
FTUS44 KHUN 270520
TAFMSL
TAF
KMSL 270520Z 2706/2806 VRB03KT P6SM SCT250
     FM270800 VRB03KT 4SM BR FEW010 SCT050
      TEMPO 2710/2713 00000KT 2SM BR SCT005
     FM271400 16005KT P6SM SCT035
     FM271800 10006KT P6SM VCTS BKN050CB
     FM280100 08002KT P6SM SCT050=

USA.gov is the U.S. government's official web portal to all federal, state and local government web resources and services.